sensor_id;sensor_type;location;lat;lon;timestamp;P1;durP1;ratioP1;P2;durP2;ratioP2
45208;SDS011;30951;43.994;26.260;2023-05-07T00:01:04;5.68;;;3.78;;
45208;SDS011;30951;43.994;26.260;2023-05-07T00:03:31;6.07;;;4.25;;
45208;SDS011;30951;43.994;26.260;2023-05-07T00:05:57;4.70;;;4.20;;
45208;SDS011;30951;43.994;26.260;2023-05-07T00:08:23;6.40;;;4.70;;
45208;SDS011;30951;43.994;26.260;2023-05-07T00:10:48;7.30;;;5.20;;
45208;SDS011;30951;43.994;26.260;2023-05-07T00:13:14;9.02;;;5.05;;
45208;SDS011;30951;43.994;26.260;2023-05-07T00:15:40;7.15;;;5.05;;
45208;SDS011;30951;43.994;26.260;2023-05-07T00:18:05;7.15;;;5.35;;
45208;SDS011;30951;43.994;26.260;2023-05-07T00:20:31;9.73;;;5.38;;
45208;SDS011;30951;43.994;26.260;2023-05-07T00:22:56;7.45;;;5.15;;
45208;SDS011;30951;43.994;26.260;2023-05-07T00:25:22;9.13;;;5.90;;
45208;SDS011;30951;43.994;26.260;2023-05-07T00:27:47;11.38;;;5.85;;
45208;SDS011;30951;43.994;26.260;2023-05-07T00:30:13;8.00;;;5.68;;
45208;SDS011;30951;43.994;26.260;2023-05-07T00:32:38;10.48;;;5.90;;
45208;SDS011;30951;43.994;26.260;2023-05-07T00:35:04;7.85;;;5.65;;
45208;SDS011;30951;43.994;26.260;2023-05-07T00:37:30;8.10;;;5.95;;
45208;SDS011;30951;43.994;26.260;2023-05-07T00:39:56;10.98;;;6.13;;
45208;SDS011;30951;43.994;26.260;2023-05-07T00:42:22;8.38;;;6.10;;
45208;SDS011;30951;43.994;26.260;2023-05-07T00:44:47;11.07;;;6.30;;
45208;SDS011;30951;43.994;26.260;2023-05-07T00:47:13;10.13;;;6.15;;
45208;SDS011;30951;43.994;26.260;2023-05-07T00:49:39;7.47;;;5.60;;
45208;SDS011;30951;43.994;26.260;2023-05-07T00:52:07;7.65;;;6.18;;
45208;SDS011;30951;43.994;26.260;2023-05-07T00:54:33;12.55;;;6.78;;
45208;SDS011;30951;43.994;26.260;2023-05-07T00:56:59;8.80;;;5.82;;
45208;SDS011;30951;43.994;26.260;2023-05-07T00:59:25;6.05;;;5.40;;
45208;SDS011;30951;43.994;26.260;2023-05-07T01:01:51;9.27;;;6.88;;
45208;SDS011;30951;43.994;26.260;2023-05-07T01:04:17;11.30;;;7.18;;
45208;SDS011;30951;43.994;26.260;2023-05-07T01:06:42;9.43;;;6.30;;
45208;SDS011;30951;43.994;26.260;2023-05-07T01:09:09;8.88;;;6.93;;
45208;SDS011;30951;43.994;26.260;2023-05-07T01:11:35;10.60;;;7.47;;
45208;SDS011;30951;43.994;26.260;2023-05-07T01:14:00;10.65;;;8.00;;
45208;SDS011;30951;43.994;26.260;2023-05-07T01:16:26;10.65;;;7.22;;
45208;SDS011;30951;43.994;26.260;2023-05-07T01:18:52;9.35;;;7.13;;
45208;SDS011;30951;43.994;26.260;2023-05-07T01:21:18;11.43;;;7.32;;
45208;SDS011;30951;43.994;26.260;2023-05-07T01:23:44;12.15;;;7.30;;
45208;SDS011;30951;43.994;26.260;2023-05-07T01:26:10;11.00;;;7.30;;
45208;SDS011;30951;43.994;26.260;2023-05-07T01:28:35;10.27;;;6.50;;
45208;SDS011;30951;43.994;26.260;2023-05-07T01:31:01;9.40;;;6.78;;
45208;SDS011;30951;43.994;26.260;2023-05-07T01:33:29;10.27;;;7.35;;
45208;SDS011;30951;43.994;26.260;2023-05-07T01:35:56;10.82;;;7.80;;
45208;SDS011;30951;43.994;26.260;2023-05-07T01:38:23;10.27;;;7.45;;
45208;SDS011;30951;43.994;26.260;2023-05-07T01:40:49;13.43;;;7.85;;
45208;SDS011;30951;43.994;26.260;2023-05-07T01:43:15;11.75;;;7.93;;
45208;SDS011;30951;43.994;26.260;2023-05-07T01:45:40;10.32;;;7.20;;
45208;SDS011;30951;43.994;26.260;2023-05-07T01:48:06;11.10;;;7.95;;
45208;SDS011;30951;43.994;26.260;2023-05-07T01:50:32;10.95;;;8.20;;
45208;SDS011;30951;43.994;26.260;2023-05-07T01:52:59;11.63;;;7.57;;
45208;SDS011;30951;43.994;26.260;2023-05-07T01:55:24;12.40;;;7.80;;
45208;SDS011;30951;43.994;26.260;2023-05-07T01:57:50;10.07;;;7.65;;
45208;SDS011;30951;43.994;26.260;2023-05-07T02:00:15;13.70;;;7.13;;
45208;SDS011;30951;43.994;26.260;2023-05-07T02:02:42;9.50;;;6.95;;
45208;SDS011;30951;43.994;26.260;2023-05-07T02:05:08;9.18;;;6.53;;
45208;SDS011;30951;43.994;26.260;2023-05-07T02:07:33;10.10;;;6.78;;
45208;SDS011;30951;43.994;26.260;2023-05-07T02:09:59;12.82;;;8.07;;
45208;SDS011;30951;43.994;26.260;2023-05-07T02:12:24;11.05;;;7.30;;
45208;SDS011;30951;43.994;26.260;2023-05-07T02:14:50;9.80;;;6.60;;
45208;SDS011;30951;43.994;26.260;2023-05-07T02:17:15;9.95;;;6.95;;
45208;SDS011;30951;43.994;26.260;2023-05-07T02:19:41;12.65;;;7.63;;
45208;SDS011;30951;43.994;26.260;2023-05-07T02:22:07;11.52;;;8.23;;
45208;SDS011;30951;43.994;26.260;2023-05-07T02:24:32;10.50;;;8.23;;
45208;SDS011;30951;43.994;26.260;2023-05-07T02:26:58;8.60;;;7.53;;
45208;SDS011;30951;43.994;26.260;2023-05-07T02:29:23;12.65;;;6.82;;
45208;SDS011;30951;43.994;26.260;2023-05-07T02:31:49;11.48;;;7.90;;
45208;SDS011;30951;43.994;26.260;2023-05-07T02:34:16;12.15;;;8.00;;
45208;SDS011;30951;43.994;26.260;2023-05-07T02:36:42;8.45;;;6.43;;
45208;SDS011;30951;43.994;26.260;2023-05-07T02:39:08;9.50;;;6.60;;
45208;SDS011;30951;43.994;26.260;2023-05-07T02:41:33;10.38;;;6.72;;
45208;SDS011;30951;43.994;26.260;2023-05-07T02:43:59;9.20;;;6.15;;
45208;SDS011;30951;43.994;26.260;2023-05-07T02:46:24;9.57;;;6.90;;
45208;SDS011;30951;43.994;26.260;2023-05-07T02:48:50;9.57;;;7.45;;
45208;SDS011;30951;43.994;26.260;2023-05-07T02:51:17;7.70;;;6.07;;
45208;SDS011;30951;43.994;26.260;2023-05-07T02:53:44;8.60;;;6.50;;
45208;SDS011;30951;43.994;26.260;2023-05-07T02:56:10;11.57;;;8.15;;
45208;SDS011;30951;43.994;26.260;2023-05-07T02:58:36;12.70;;;7.68;;
45208;SDS011;30951;43.994;26.260;2023-05-07T03:01:01;15.15;;;8.27;;
45208;SDS011;30951;43.994;26.260;2023-05-07T03:03:27;11.95;;;8.23;;
45208;SDS011;30951;43.994;26.260;2023-05-07T03:05:52;13.43;;;8.20;;
45208;SDS011;30951;43.994;26.260;2023-05-07T03:08:18;12.73;;;7.95;;
45208;SDS011;30951;43.994;26.260;2023-05-07T03:10:43;13.10;;;7.38;;
45208;SDS011;30951;43.994;26.260;2023-05-07T03:13:09;14.88;;;7.57;;
45208;SDS011;30951;43.994;26.260;2023-05-07T03:15:34;12.52;;;8.90;;
45208;SDS011;30951;43.994;26.260;2023-05-07T03:18:00;12.63;;;8.43;;
45208;SDS011;30951;43.994;26.260;2023-05-07T03:20:25;12.65;;;8.25;;
45208;SDS011;30951;43.994;26.260;2023-05-07T03:22:51;15.35;;;8.68;;
45208;SDS011;30951;43.994;26.260;2023-05-07T03:25:16;11.63;;;8.05;;
45208;SDS011;30951;43.994;26.260;2023-05-07T03:27:42;11.30;;;7.28;;
45208;SDS011;30951;43.994;26.260;2023-05-07T03:30:08;12.55;;;7.68;;
45208;SDS011;30951;43.994;26.260;2023-05-07T03:32:34;14.95;;;8.40;;
45208;SDS011;30951;43.994;26.260;2023-05-07T03:35:03;12.23;;;8.07;;
45208;SDS011;30951;43.994;26.260;2023-05-07T03:37:28;12.38;;;8.00;;
45208;SDS011;30951;43.994;26.260;2023-05-07T03:39:54;11.55;;;8.35;;
45208;SDS011;30951;43.994;26.260;2023-05-07T03:42:19;16.60;;;9.15;;
45208;SDS011;30951;43.994;26.260;2023-05-07T03:44:45;10.32;;;8.48;;
45208;SDS011;30951;43.994;26.260;2023-05-07T03:47:10;11.05;;;8.18;;
45208;SDS011;30951;43.994;26.260;2023-05-07T03:49:36;12.55;;;8.02;;
45208;SDS011;30951;43.994;26.260;2023-05-07T03:52:02;11.35;;;7.75;;
45208;SDS011;30951;43.994;26.260;2023-05-07T03:54:27;12.88;;;8.55;;
45208;SDS011;30951;43.994;26.260;2023-05-07T03:56:53;12.95;;;8.88;;
45208;SDS011;30951;43.994;26.260;2023-05-07T03:59:18;13.70;;;9.15;;
45208;SDS011;30951;43.994;26.260;2023-05-07T04:01:44;13.65;;;9.07;;
45208;SDS011;30951;43.994;26.260;2023-05-07T04:04:09;12.18;;;8.65;;
45208;SDS011;30951;43.994;26.260;2023-05-07T04:06:35;15.15;;;9.43;;
45208;SDS011;30951;43.994;26.260;2023-05-07T04:09:00;18.52;;;10.32;;
45208;SDS011;30951;43.994;26.260;2023-05-07T04:11:26;13.38;;;9.25;;
45208;SDS011;30951;43.994;26.260;2023-05-07T04:13:52;14.35;;;9.15;;
45208;SDS011;30951;43.994;26.260;2023-05-07T04:16:17;21.67;;;10.10;;
45208;SDS011;30951;43.994;26.260;2023-05-07T04:18:42;21.20;;;9.02;;
45208;SDS011;30951;43.994;26.260;2023-05-07T04:21:18;13.75;;;9.18;;
45208;SDS011;30951;43.994;26.260;2023-05-07T04:23:45;12.98;;;9.38;;
45208;SDS011;30951;43.994;26.260;2023-05-07T04:26:11;17.17;;;10.73;;
45208;SDS011;30951;43.994;26.260;2023-05-07T04:28:37;11.70;;;9.18;;
45208;SDS011;30951;43.994;26.260;2023-05-07T04:31:04;16.38;;;10.73;;
45208;SDS011;30951;43.994;26.260;2023-05-07T04:33:29;14.60;;;9.90;;
45208;SDS011;30951;43.994;26.260;2023-05-07T04:35:55;12.95;;;9.40;;
45208;SDS011;30951;43.994;26.260;2023-05-07T04:38:20;12.88;;;9.43;;
45208;SDS011;30951;43.994;26.260;2023-05-07T04:40:46;11.52;;;8.80;;
45208;SDS011;30951;43.994;26.260;2023-05-07T04:43:12;11.43;;;8.20;;
45208;SDS011;30951;43.994;26.260;2023-05-07T04:45:38;10.07;;;7.63;;
45208;SDS011;30951;43.994;26.260;2023-05-07T04:48:06;12.35;;;7.40;;
45208;SDS011;30951;43.994;26.260;2023-05-07T04:50:32;9.60;;;7.40;;
45208;SDS011;30951;43.994;26.260;2023-05-07T04:52:58;6.35;;;5.38;;
45208;SDS011;30951;43.994;26.260;2023-05-07T04:55:23;6.80;;;5.35;;
45208;SDS011;30951;43.994;26.260;2023-05-07T04:57:49;9.30;;;5.10;;
45208;SDS011;30951;43.994;26.260;2023-05-07T05:00:14;7.22;;;4.85;;
45208;SDS011;30951;43.994;26.260;2023-05-07T05:02:41;7.45;;;4.75;;
45208;SDS011;30951;43.994;26.260;2023-05-07T05:05:07;8.63;;;4.95;;
45208;SDS011;30951;43.994;26.260;2023-05-07T05:07:32;7.03;;;3.83;;
45208;SDS011;30951;43.994;26.260;2023-05-07T05:09:58;6.63;;;4.07;;
45208;SDS011;30951;43.994;26.260;2023-05-07T05:12:24;5.53;;;4.43;;
45208;SDS011;30951;43.994;26.260;2023-05-07T05:14:49;10.10;;;3.80;;
45208;SDS011;30951;43.994;26.260;2023-05-07T05:17:15;5.78;;;3.70;;
45208;SDS011;30951;43.994;26.260;2023-05-07T05:19:40;5.00;;;3.63;;
45208;SDS011;30951;43.994;26.260;2023-05-07T05:22:06;4.00;;;3.25;;
45208;SDS011;30951;43.994;26.260;2023-05-07T05:24:31;6.88;;;3.10;;
45208;SDS011;30951;43.994;26.260;2023-05-07T05:26:57;4.38;;;3.00;;
45208;SDS011;30951;43.994;26.260;2023-05-07T05:29:23;4.55;;;3.30;;
45208;SDS011;30951;43.994;26.260;2023-05-07T05:31:48;3.72;;;2.80;;
45208;SDS011;30951;43.994;26.260;2023-05-07T05:34:14;8.90;;;3.47;;
45208;SDS011;30951;43.994;26.260;2023-05-07T05:36:40;4.50;;;3.30;;
45208;SDS011;30951;43.994;26.260;2023-05-07T05:39:05;3.63;;;2.67;;
45208;SDS011;30951;43.994;26.260;2023-05-07T05:41:31;4.78;;;2.90;;
45208;SDS011;30951;43.994;26.260;2023-05-07T05:43:56;3.90;;;2.85;;
45208;SDS011;30951;43.994;26.260;2023-05-07T05:46:22;4.13;;;2.38;;
45208;SDS011;30951;43.994;26.260;2023-05-07T05:48:47;6.18;;;3.65;;
45208;SDS011;30951;43.994;26.260;2023-05-07T05:51:12;4.22;;;2.90;;
45208;SDS011;30951;43.994;26.260;2023-05-07T05:53:38;4.70;;;3.17;;
45208;SDS011;30951;43.994;26.260;2023-05-07T05:56:03;4.65;;;2.45;;
45208;SDS011;30951;43.994;26.260;2023-05-07T05:58:29;3.80;;;2.85;;
45208;SDS011;30951;43.994;26.260;2023-05-07T06:00:55;4.57;;;2.88;;
45208;SDS011;30951;43.994;26.260;2023-05-07T06:03:21;5.68;;;3.42;;
45208;SDS011;30951;43.994;26.260;2023-05-07T06:05:47;3.45;;;2.78;;
45208;SDS011;30951;43.994;26.260;2023-05-07T06:08:12;4.18;;;2.83;;
45208;SDS011;30951;43.994;26.260;2023-05-07T06:10:38;6.55;;;3.00;;
45208;SDS011;30951;43.994;26.260;2023-05-07T06:13:03;3.38;;;2.70;;
45208;SDS011;30951;43.994;26.260;2023-05-07T06:15:29;2.78;;;2.15;;
45208;SDS011;30951;43.994;26.260;2023-05-07T06:17:54;4.53;;;2.47;;
45208;SDS011;30951;43.994;26.260;2023-05-07T06:20:22;3.13;;;2.53;;
45208;SDS011;30951;43.994;26.260;2023-05-07T06:22:48;3.47;;;2.88;;
45208;SDS011;30951;43.994;26.260;2023-05-07T06:25:13;3.25;;;2.60;;
45208;SDS011;30951;43.994;26.260;2023-05-07T06:27:39;3.38;;;2.45;;
45208;SDS011;30951;43.994;26.260;2023-05-07T06:30:05;2.50;;;2.30;;
45208;SDS011;30951;43.994;26.260;2023-05-07T06:32:31;5.55;;;2.15;;
45208;SDS011;30951;43.994;26.260;2023-05-07T06:34:56;7.13;;;2.70;;
45208;SDS011;30951;43.994;26.260;2023-05-07T06:37:22;5.97;;;2.60;;
45208;SDS011;30951;43.994;26.260;2023-05-07T06:39:48;2.67;;;1.98;;
45208;SDS011;30951;43.994;26.260;2023-05-07T06:42:13;3.83;;;3.05;;
45208;SDS011;30951;43.994;26.260;2023-05-07T06:44:38;4.82;;;2.30;;
45208;SDS011;30951;43.994;26.260;2023-05-07T06:47:04;4.05;;;2.28;;
45208;SDS011;30951;43.994;26.260;2023-05-07T06:49:30;2.53;;;2.33;;
45208;SDS011;30951;43.994;26.260;2023-05-07T06:51:56;3.28;;;2.33;;
45208;SDS011;30951;43.994;26.260;2023-05-07T06:54:22;3.80;;;2.60;;
45208;SDS011;30951;43.994;26.260;2023-05-07T06:56:48;4.88;;;2.60;;
45208;SDS011;30951;43.994;26.260;2023-05-07T06:59:13;3.55;;;2.28;;
45208;SDS011;30951;43.994;26.260;2023-05-07T07:01:39;2.55;;;2.22;;
45208;SDS011;30951;43.994;26.260;2023-05-07T07:04:05;2.20;;;1.95;;
45208;SDS011;30951;43.994;26.260;2023-05-07T07:06:30;3.00;;;2.40;;
45208;SDS011;30951;43.994;26.260;2023-05-07T07:08:57;2.42;;;1.90;;
45208;SDS011;30951;43.994;26.260;2023-05-07T07:11:23;2.38;;;1.70;;
45208;SDS011;30951;43.994;26.260;2023-05-07T07:13:48;2.47;;;1.50;;
45208;SDS011;30951;43.994;26.260;2023-05-07T07:16:14;3.20;;;1.35;;
45208;SDS011;30951;43.994;26.260;2023-05-07T07:18:40;2.33;;;1.60;;
45208;SDS011;30951;43.994;26.260;2023-05-07T07:21:05;1.70;;;1.60;;
45208;SDS011;30951;43.994;26.260;2023-05-07T07:23:30;3.28;;;1.52;;
45208;SDS011;30951;43.994;26.260;2023-05-07T07:25:56;2.15;;;1.42;;
45208;SDS011;30951;43.994;26.260;2023-05-07T07:28:22;1.98;;;1.13;;
45208;SDS011;30951;43.994;26.260;2023-05-07T07:30:47;2.83;;;1.63;;
45208;SDS011;30951;43.994;26.260;2023-05-07T07:33:13;5.07;;;1.63;;
45208;SDS011;30951;43.994;26.260;2023-05-07T07:35:39;4.00;;;1.38;;
45208;SDS011;30951;43.994;26.260;2023-05-07T07:38:04;1.55;;;1.13;;
45208;SDS011;30951;43.994;26.260;2023-05-07T07:40:30;1.70;;;1.17;;
45208;SDS011;30951;43.994;26.260;2023-05-07T07:42:56;1.52;;;1.20;;
45208;SDS011;30951;43.994;26.260;2023-05-07T07:45:21;1.52;;;1.25;;
45208;SDS011;30951;43.994;26.260;2023-05-07T07:47:47;1.73;;;1.25;;
45208;SDS011;30951;43.994;26.260;2023-05-07T07:50:13;1.08;;;0.98;;
45208;SDS011;30951;43.994;26.260;2023-05-07T07:52:38;4.85;;;1.27;;
45208;SDS011;30951;43.994;26.260;2023-05-07T07:55:04;1.25;;;1.15;;
45208;SDS011;30951;43.994;26.260;2023-05-07T07:57:30;2.05;;;1.23;;
45208;SDS011;30951;43.994;26.260;2023-05-07T07:59:56;3.75;;;1.30;;
45208;SDS011;30951;43.994;26.260;2023-05-07T08:02:21;1.42;;;1.23;;
45208;SDS011;30951;43.994;26.260;2023-05-07T08:04:47;3.60;;;1.40;;
45208;SDS011;30951;43.994;26.260;2023-05-07T08:07:12;3.35;;;1.35;;
45208;SDS011;30951;43.994;26.260;2023-05-07T08:09:38;3.92;;;1.30;;
45208;SDS011;30951;43.994;26.260;2023-05-07T08:12:04;3.90;;;1.25;;
45208;SDS011;30951;43.994;26.260;2023-05-07T08:14:30;4.13;;;1.55;;
45208;SDS011;30951;43.994;26.260;2023-05-07T08:16:56;3.28;;;1.38;;
45208;SDS011;30951;43.994;26.260;2023-05-07T08:19:21;2.83;;;1.30;;
45208;SDS011;30951;43.994;26.260;2023-05-07T08:21:47;2.08;;;1.25;;
45208;SDS011;30951;43.994;26.260;2023-05-07T08:24:16;1.63;;;1.23;;
45208;SDS011;30951;43.994;26.260;2023-05-07T08:26:43;3.38;;;1.35;;
45208;SDS011;30951;43.994;26.260;2023-05-07T08:29:09;4.57;;;0.98;;
45208;SDS011;30951;43.994;26.260;2023-05-07T08:31:34;2.22;;;1.25;;
45208;SDS011;30951;43.994;26.260;2023-05-07T08:34:00;2.08;;;0.93;;
45208;SDS011;30951;43.994;26.260;2023-05-07T08:36:26;2.08;;;1.33;;
45208;SDS011;30951;43.994;26.260;2023-05-07T08:38:52;2.53;;;1.23;;
45208;SDS011;30951;43.994;26.260;2023-05-07T08:41:18;4.47;;;0.90;;
45208;SDS011;30951;43.994;26.260;2023-05-07T08:43:46;2.47;;;0.82;;
45208;SDS011;30951;43.994;26.260;2023-05-07T08:46:14;2.65;;;1.08;;
45208;SDS011;30951;43.994;26.260;2023-05-07T08:48:42;5.15;;;1.38;;
45208;SDS011;30951;43.994;26.260;2023-05-07T08:51:08;2.28;;;1.00;;
45208;SDS011;30951;43.994;26.260;2023-05-07T08:53:40;2.95;;;0.80;;
45208;SDS011;30951;43.994;26.260;2023-05-07T08:56:07;2.47;;;0.93;;
45208;SDS011;30951;43.994;26.260;2023-05-07T08:58:33;1.08;;;0.95;;
45208;SDS011;30951;43.994;26.260;2023-05-07T09:00:59;1.67;;;1.02;;
45208;SDS011;30951;43.994;26.260;2023-05-07T09:03:28;1.23;;;1.00;;
45208;SDS011;30951;43.994;26.260;2023-05-07T09:05:55;0.90;;;0.80;;
45208;SDS011;30951;43.994;26.260;2023-05-07T09:08:24;0.82;;;0.70;;
45208;SDS011;30951;43.994;26.260;2023-05-07T09:10:50;1.27;;;0.88;;
45208;SDS011;30951;43.994;26.260;2023-05-07T09:13:16;1.25;;;0.90;;
45208;SDS011;30951;43.994;26.260;2023-05-07T09:15:43;1.38;;;0.90;;
45208;SDS011;30951;43.994;26.260;2023-05-07T09:18:08;1.80;;;0.90;;
45208;SDS011;30951;43.994;26.260;2023-05-07T09:20:36;3.05;;;0.70;;
45208;SDS011;30951;43.994;26.260;2023-05-07T09:23:01;1.55;;;1.13;;
45208;SDS011;30951;43.994;26.260;2023-05-07T09:25:28;1.52;;;0.80;;
45208;SDS011;30951;43.994;26.260;2023-05-07T09:27:54;1.20;;;0.77;;
45208;SDS011;30951;43.994;26.260;2023-05-07T09:30:20;2.00;;;0.88;;
45208;SDS011;30951;43.994;26.260;2023-05-07T09:32:46;2.28;;;0.60;;
45208;SDS011;30951;43.994;26.260;2023-05-07T09:35:15;2.10;;;1.20;;
45208;SDS011;30951;43.994;26.260;2023-05-07T09:37:42;0.93;;;0.70;;
45208;SDS011;30951;43.994;26.260;2023-05-07T09:40:07;1.08;;;0.73;;
45208;SDS011;30951;43.994;26.260;2023-05-07T09:42:34;1.92;;;0.93;;
45208;SDS011;30951;43.994;26.260;2023-05-07T09:45:00;0.70;;;0.70;;
45208;SDS011;30951;43.994;26.260;2023-05-07T09:47:25;5.85;;;1.33;;
45208;SDS011;30951;43.994;26.260;2023-05-07T09:49:57;1.08;;;0.60;;
45208;SDS011;30951;43.994;26.260;2023-05-07T09:52:25;1.52;;;0.80;;
45208;SDS011;30951;43.994;26.260;2023-05-07T09:54:53;1.13;;;0.90;;
45208;SDS011;30951;43.994;26.260;2023-05-07T09:57:20;1.10;;;0.60;;
45208;SDS011;30951;43.994;26.260;2023-05-07T09:59:47;2.15;;;0.75;;
45208;SDS011;30951;43.994;26.260;2023-05-07T10:02:14;1.15;;;0.90;;
45208;SDS011;30951;43.994;26.260;2023-05-07T10:04:40;3.50;;;0.90;;
45208;SDS011;30951;43.994;26.260;2023-05-07T10:07:06;2.03;;;0.90;;
45208;SDS011;30951;43.994;26.260;2023-05-07T10:09:32;2.63;;;1.10;;
45208;SDS011;30951;43.994;26.260;2023-05-07T10:11:57;1.65;;;0.88;;
45208;SDS011;30951;43.994;26.260;2023-05-07T10:14:23;1.20;;;0.98;;
45208;SDS011;30951;43.994;26.260;2023-05-07T10:16:49;1.40;;;0.60;;
45208;SDS011;30951;43.994;26.260;2023-05-07T10:19:15;3.22;;;0.73;;
45208;SDS011;30951;43.994;26.260;2023-05-07T10:21:48;1.42;;;0.70;;
45208;SDS011;30951;43.994;26.260;2023-05-07T10:26:45;2.00;;;0.70;;
45208;SDS011;30951;43.994;26.260;2023-05-07T10:29:14;1.23;;;1.00;;
45208;SDS011;30951;43.994;26.260;2023-05-07T10:34:29;0.77;;;0.68;;
45208;SDS011;30951;43.994;26.260;2023-05-07T10:37:00;0.63;;;0.60;;
45208;SDS011;30951;43.994;26.260;2023-05-07T10:39:26;1.00;;;0.90;;
45208;SDS011;30951;43.994;26.260;2023-05-07T10:41:52;1.27;;;0.70;;
45208;SDS011;30951;43.994;26.260;2023-05-07T10:44:27;1.75;;;0.80;;
45208;SDS011;30951;43.994;26.260;2023-05-07T10:47:03;1.20;;;0.77;;
45208;SDS011;30951;43.994;26.260;2023-05-07T10:49:29;0.60;;;0.60;;
45208;SDS011;30951;43.994;26.260;2023-05-07T10:57:50;0.60;;;0.60;;
45208;SDS011;30951;43.994;26.260;2023-05-07T11:05:25;1.42;;;0.65;;
45208;SDS011;30951;43.994;26.260;2023-05-07T11:07:55;2.17;;;0.68;;
45208;SDS011;30951;43.994;26.260;2023-05-07T11:10:21;1.10;;;0.80;;
45208;SDS011;30951;43.994;26.260;2023-05-07T11:12:48;0.75;;;0.60;;
45208;SDS011;30951;43.994;26.260;2023-05-07T11:15:14;0.70;;;0.70;;
45208;SDS011;30951;43.994;26.260;2023-05-07T11:17:54;0.80;;;0.60;;
45208;SDS011;30951;43.994;26.260;2023-05-07T11:20:20;0.70;;;0.70;;
45208;SDS011;30951;43.994;26.260;2023-05-07T11:22:46;1.25;;;0.70;;
45208;SDS011;30951;43.994;26.260;2023-05-07T11:25:17;1.38;;;0.70;;
45208;SDS011;30951;43.994;26.260;2023-05-07T11:27:44;1.02;;;0.93;;
45208;SDS011;30951;43.994;26.260;2023-05-07T11:30:10;0.73;;;0.55;;
45208;SDS011;30951;43.994;26.260;2023-05-07T11:32:42;0.88;;;0.70;;
45208;SDS011;30951;43.994;26.260;2023-05-07T11:35:07;1.92;;;0.75;;
45208;SDS011;30951;43.994;26.260;2023-05-07T11:37:33;0.75;;;0.75;;
45208;SDS011;30951;43.994;26.260;2023-05-07T11:40:03;0.82;;;0.77;;
45208;SDS011;30951;43.994;26.260;2023-05-07T11:42:30;1.48;;;0.80;;
45208;SDS011;30951;43.994;26.260;2023-05-07T11:44:57;0.75;;;0.60;;
45208;SDS011;30951;43.994;26.260;2023-05-07T11:47:23;0.82;;;0.55;;
45208;SDS011;30951;43.994;26.260;2023-05-07T11:49:50;0.70;;;0.70;;
45208;SDS011;30951;43.994;26.260;2023-05-07T11:52:17;0.75;;;0.68;;
45208;SDS011;30951;43.994;26.260;2023-05-07T11:54:53;3.13;;;0.65;;
45208;SDS011;30951;43.994;26.260;2023-05-07T11:57:20;1.45;;;0.55;;
45208;SDS011;30951;43.994;26.260;2023-05-07T11:59:46;1.35;;;0.82;;
45208;SDS011;30951;43.994;26.260;2023-05-07T12:02:15;1.13;;;0.95;;
45208;SDS011;30951;43.994;26.260;2023-05-07T12:04:41;3.22;;;0.90;;
45208;SDS011;30951;43.994;26.260;2023-05-07T12:07:16;1.27;;;0.90;;
45208;SDS011;30951;43.994;26.260;2023-05-07T12:09:43;1.05;;;1.00;;
45208;SDS011;30951;43.994;26.260;2023-05-07T12:12:10;3.90;;;0.70;;
45208;SDS011;30951;43.994;26.260;2023-05-07T12:14:39;0.52;;;0.52;;
45208;SDS011;30951;43.994;26.260;2023-05-07T12:17:06;0.60;;;0.60;;
45208;SDS011;30951;43.994;26.260;2023-05-07T12:19:33;1.30;;;0.70;;
45208;SDS011;30951;43.994;26.260;2023-05-07T12:22:05;0.85;;;0.85;;
45208;SDS011;30951;43.994;26.260;2023-05-07T12:27:27;3.00;;;1.10;;
45208;SDS011;30951;43.994;26.260;2023-05-07T12:29:53;0.93;;;0.80;;
45208;SDS011;30951;43.994;26.260;2023-05-07T12:32:21;1.27;;;0.98;;
45208;SDS011;30951;43.994;26.260;2023-05-07T12:34:50;2.60;;;0.70;;
45208;SDS011;30951;43.994;26.260;2023-05-07T12:37:16;1.48;;;0.70;;
45208;SDS011;30951;43.994;26.260;2023-05-07T12:39:48;5.75;;;0.60;;
45208;SDS011;30951;43.994;26.260;2023-05-07T12:42:19;2.47;;;1.10;;
45208;SDS011;30951;43.994;26.260;2023-05-07T12:44:50;0.63;;;0.55;;
45208;SDS011;30951;43.994;26.260;2023-05-07T12:47:17;2.40;;;1.08;;
45208;SDS011;30951;43.994;26.260;2023-05-07T12:49:43;0.80;;;0.65;;
45208;SDS011;30951;43.994;26.260;2023-05-07T12:52:10;2.95;;;0.82;;
45208;SDS011;30951;43.994;26.260;2023-05-07T12:54:37;1.13;;;0.90;;
45208;SDS011;30951;43.994;26.260;2023-05-07T12:57:03;1.10;;;0.88;;
45208;SDS011;30951;43.994;26.260;2023-05-07T13:02:02;0.88;;;0.75;;
45208;SDS011;30951;43.994;26.260;2023-05-07T13:04:29;1.80;;;0.98;;
45208;SDS011;30951;43.994;26.260;2023-05-07T13:06:54;0.60;;;0.60;;
45208;SDS011;30951;43.994;26.260;2023-05-07T13:09:20;2.03;;;0.77;;
45208;SDS011;30951;43.994;26.260;2023-05-07T13:11:45;3.15;;;1.00;;
45208;SDS011;30951;43.994;26.260;2023-05-07T13:14:11;2.80;;;0.98;;
45208;SDS011;30951;43.994;26.260;2023-05-07T13:16:37;1.58;;;0.80;;
45208;SDS011;30951;43.994;26.260;2023-05-07T13:19:02;0.98;;;0.70;;
45208;SDS011;30951;43.994;26.260;2023-05-07T13:21:28;0.82;;;0.77;;
45208;SDS011;30951;43.994;26.260;2023-05-07T13:23:53;0.65;;;0.60;;
45208;SDS011;30951;43.994;26.260;2023-05-07T13:26:19;0.65;;;0.65;;
45208;SDS011;30951;43.994;26.260;2023-05-07T13:28:45;0.80;;;0.80;;
45208;SDS011;30951;43.994;26.260;2023-05-07T13:31:11;1.23;;;0.80;;
45208;SDS011;30951;43.994;26.260;2023-05-07T13:33:36;1.73;;;0.77;;
45208;SDS011;30951;43.994;26.260;2023-05-07T13:36:02;1.98;;;0.88;;
45208;SDS011;30951;43.994;26.260;2023-05-07T13:38:29;1.73;;;0.73;;
45208;SDS011;30951;43.994;26.260;2023-05-07T13:40:55;1.65;;;0.75;;
45208;SDS011;30951;43.994;26.260;2023-05-07T13:43:21;1.75;;;0.73;;
45208;SDS011;30951;43.994;26.260;2023-05-07T13:45:46;1.10;;;0.70;;
45208;SDS011;30951;43.994;26.260;2023-05-07T13:48:12;3.03;;;0.65;;
45208;SDS011;30951;43.994;26.260;2023-05-07T13:50:37;1.10;;;1.00;;
45208;SDS011;30951;43.994;26.260;2023-05-07T13:53:02;3.92;;;0.75;;
45208;SDS011;30951;43.994;26.260;2023-05-07T13:55:28;1.80;;;0.55;;
45208;SDS011;30951;43.994;26.260;2023-05-07T13:58:01;0.70;;;0.70;;
45208;SDS011;30951;43.994;26.260;2023-05-07T14:00:28;1.42;;;0.70;;
45208;SDS011;30951;43.994;26.260;2023-05-07T14:02:54;1.13;;;1.00;;
45208;SDS011;30951;43.994;26.260;2023-05-07T14:05:20;1.40;;;1.10;;
45208;SDS011;30951;43.994;26.260;2023-05-07T14:07:48;0.70;;;0.70;;
45208;SDS011;30951;43.994;26.260;2023-05-07T14:10:17;0.85;;;0.70;;
45208;SDS011;30951;43.994;26.260;2023-05-07T14:12:43;1.35;;;0.73;;
45208;SDS011;30951;43.994;26.260;2023-05-07T14:15:10;0.98;;;0.88;;
45208;SDS011;30951;43.994;26.260;2023-05-07T14:17:35;2.65;;;0.90;;
45208;SDS011;30951;43.994;26.260;2023-05-07T14:20:01;1.00;;;0.70;;
45208;SDS011;30951;43.994;26.260;2023-05-07T14:22:26;1.58;;;0.93;;
45208;SDS011;30951;43.994;26.260;2023-05-07T14:24:52;1.55;;;1.15;;
45208;SDS011;30951;43.994;26.260;2023-05-07T14:27:17;0.85;;;0.68;;
45208;SDS011;30951;43.994;26.260;2023-05-07T14:29:43;2.65;;;0.90;;
45208;SDS011;30951;43.994;26.260;2023-05-07T14:32:10;1.55;;;0.60;;
45208;SDS011;30951;43.994;26.260;2023-05-07T14:34:36;2.13;;;0.80;;
45208;SDS011;30951;43.994;26.260;2023-05-07T14:37:01;5.15;;;0.73;;
45208;SDS011;30951;43.994;26.260;2023-05-07T14:39:27;1.60;;;0.93;;
45208;SDS011;30951;43.994;26.260;2023-05-07T14:41:52;2.45;;;1.17;;
45208;SDS011;30951;43.994;26.260;2023-05-07T14:44:20;5.80;;;0.77;;
45208;SDS011;30951;43.994;26.260;2023-05-07T14:46:45;0.90;;;0.57;;